Time;durP1;ratioP1;P1;durP2;ratioP2;P2;SDS_P1;SDS_P2;PMS_P1;PMS_P2;Temp;Humidity;BMP_temperature;BMP_pressure;BME280_temperature;BME280_humidity;BME280_pressure;Samples;Min_cycle;Max_cycle;Signal;HPM_P1;HPM_P2
2021/05/21 00:01:43;;;;;;;28.63;3.70;;;;;;;;;;5094703;28;20721;-84
2021/05/21 00:04:11;;;;;;;22.53;3.30;;;;;;;;;;5095444;28;20290;-84
2021/05/21 00:06:37;;;;;;;22.23;4.10;;;;;;;;;;5095375;28;20285;-84
2021/05/21 00:09:05;;;;;;;22.00;3.80;;;;;;;;;;5095293;28;20234;-84
2021/05/21 00:11:31;;;;;;;28.53;4.03;;;;;;;;;;5095176;28;20195;-84
2021/05/21 00:13:58;;;;;;;18.57;3.50;;;;;;;;;;5094713;28;20250;-84
2021/05/21 00:16:25;;;;;;;25.77;3.67;;;;;;;;;;5094982;28;20281;-84
2021/05/21 00:18:52;;;;;;;20.07;3.27;;;;;;;;;;5094988;28;20997;-84
2021/05/21 00:21:20;;;;;;;20.43;3.70;;;;;;;;;;5094865;28;20233;-84
2021/05/21 00:23:46;;;;;;;22.33;4.33;;;;;;;;;;5094242;28;20344;-84
2021/05/21 00:26:13;;;;;;;22.20;3.90;;;;;;;;;;5095261;28;20237;-84
2021/05/21 00:28:40;;;;;;;23.47;4.13;;;;;;;;;;5094747;28;20202;-85
2021/05/21 00:31:07;;;;;;;16.57;3.10;;;;;;;;;;5095313;28;20606;-84
2021/05/21 00:33:34;;;;;;;21.53;3.50;;;;;;;;;;5094786;28;20325;-85
2021/05/21 00:36:00;;;;;;;17.57;3.60;;;;;;;;;;5095041;28;20635;-85
2021/05/21 00:38:28;;;;;;;15.37;3.37;;;;;;;;;;5093947;28;20256;-83
2021/05/21 00:40:55;;;;;;;21.73;3.67;;;;;;;;;;5094809;28;20213;-84
2021/05/21 00:43:21;;;;;;;22.17;3.70;;;;;;;;;;5094378;28;20202;-84
2021/05/21 00:45:48;;;;;;;21.00;3.23;;;;;;;;;;5094568;28;20226;-83
2021/05/21 00:48:15;;;;;;;22.77;4.23;;;;;;;;;;5094714;28;20401;-85
2021/05/21 00:50:41;;;;;;;18.10;3.63;;;;;;;;;;5094220;28;20230;-84
2021/05/21 00:53:10;;;;;;;23.03;3.60;;;;;;;;;;5094099;28;20206;-84
2021/05/21 00:55:38;;;;;;;22.07;3.47;;;;;;;;;;5093379;28;20662;-83
2021/05/21 00:58:05;;;;;;;20.07;3.10;;;;;;;;;;5094300;28;20748;-84
2021/05/21 01:00:32;;;;;;;20.67;3.80;;;;;;;;;;5094371;28;20205;-85
2021/05/21 01:02:59;;;;;;;18.47;3.23;;;;;;;;;;5094279;28;20238;-84
2021/05/21 01:05:26;;;;;;;22.03;4.00;;;;;;;;;;5093936;28;20285;-84
2021/05/21 01:07:52;;;;;;;26.60;4.47;;;;;;;;;;5094498;28;20233;-84
2021/05/21 01:10:19;;;;;;;22.10;3.50;;;;;;;;;;5094480;28;20666;-84
2021/05/21 01:12:48;;;;;;;20.10;3.67;;;;;;;;;;5093496;28;20317;-84
2021/05/21 01:15:15;;;;;;;26.67;3.53;;;;;;;;;;5094566;28;20601;-84
2021/05/21 01:17:42;;;;;;;17.77;3.83;;;;;;;;;;5093575;28;20319;-84
2021/05/21 01:20:09;;;;;;;22.67;4.20;;;;;;;;;;5093413;28;20198;-84
2021/05/21 01:22:37;;;;;;;22.77;3.77;;;;;;;;;;5093611;28;20280;-85
2021/05/21 01:25:04;;;;;;;21.50;4.00;;;;;;;;;;5092977;28;20190;-85
2021/05/21 01:27:32;;;;;;;22.30;4.17;;;;;;;;;;5093801;28;20221;-84
2021/05/21 01:29:58;;;;;;;20.73;3.80;;;;;;;;;;5093655;28;20619;-84
2021/05/21 01:32:25;;;;;;;16.07;3.27;;;;;;;;;;5093817;28;20678;-84
2021/05/21 01:34:52;;;;;;;19.53;3.73;;;;;;;;;;5093169;28;20226;-84
2021/05/21 01:37:19;;;;;;;20.40;3.67;;;;;;;;;;5093871;28;20624;-84
2021/05/21 01:39:47;;;;;;;28.20;4.13;;;;;;;;;;5093086;28;20293;-84
2021/05/21 01:42:15;;;;;;;19.73;4.10;;;;;;;;;;5093549;28;20225;-84
2021/05/21 01:44:42;;;;;;;21.20;4.03;;;;;;;;;;5093928;28;20286;-84
2021/05/21 01:47:11;;;;;;;19.57;3.50;;;;;;;;;;5093149;28;20230;-83
2021/05/21 01:49:37;;;;;;;19.87;3.73;;;;;;;;;;5093034;28;20206;-84
2021/05/21 01:52:04;;;;;;;18.63;3.83;;;;;;;;;;5093347;28;20245;-84
2021/05/21 01:54:31;;;;;;;19.07;3.37;;;;;;;;;;5093209;28;20242;-84
2021/05/21 01:56:59;;;;;;;22.63;3.73;;;;;;;;;;5093240;28;20202;-83
2021/05/21 01:59:26;;;;;;;20.30;3.63;;;;;;;;;;5093460;28;20254;-83
2021/05/21 02:01:53;;;;;;;18.07;3.73;;;;;;;;;;5093545;28;20205;-84
2021/05/21 02:04:28;;;;;;;21.60;3.83;;;;;;;;;;5085338;28;20758;-83
2021/05/21 02:06:55;;;;;;;23.37;4.23;;;;;;;;;;5072950;28;20659;-84
2021/05/21 02:09:21;;;;;;;19.37;3.53;;;;;;;;;;5073194;28;20203;-84
2021/05/21 02:11:48;;;;;;;20.97;3.93;;;;;;;;;;5072694;28;20191;-84
2021/05/21 02:14:16;;;;;;;22.10;3.80;;;;;;;;;;5076623;28;20277;-82
2021/05/21 02:16:42;;;;;;;22.37;3.83;;;;;;;;;;5092421;28;20286;-84
2021/05/21 02:19:09;;;;;;;19.10;2.90;;;;;;;;;;5092578;28;20301;-83
2021/05/21 02:21:38;;;;;;;23.43;4.17;;;;;;;;;;5091973;28;20749;-83
2021/05/21 02:24:06;;;;;;;18.50;3.63;;;;;;;;;;5093010;28;20318;-84
2021/05/21 02:26:33;;;;;;;20.80;3.77;;;;;;;;;;5092009;28;20245;-84
2021/05/21 02:28:59;;;;;;;20.23;3.70;;;;;;;;;;5092581;28;20300;-84
2021/05/21 02:31:27;;;;;;;25.67;3.37;;;;;;;;;;5092029;28;20666;-83
2021/05/21 02:33:54;;;;;;;18.10;3.73;;;;;;;;;;5092026;28;20293;-84
2021/05/21 02:36:20;;;;;;;20.13;3.40;;;;;;;;;;5092177;28;20209;-84
2021/05/21 02:38:47;;;;;;;23.50;3.73;;;;;;;;;;5091872;28;20270;-83
2021/05/21 02:41:14;;;;;;;21.00;4.37;;;;;;;;;;5092317;28;20288;-84
2021/05/21 02:43:40;;;;;;;20.23;3.50;;;;;;;;;;5092190;28;20238;-84
2021/05/21 02:46:07;;;;;;;22.27;3.57;;;;;;;;;;5091747;28;20264;-83
2021/05/21 02:48:35;;;;;;;19.00;3.70;;;;;;;;;;5103139;28;20233;-83
2021/05/21 02:51:01;;;;;;;20.07;3.60;;;;;;;;;;5112904;28;20255;-83
2021/05/21 02:53:28;;;;;;;24.10;4.10;;;;;;;;;;5113201;28;20201;-83
2021/05/21 02:55:55;;;;;;;20.10;3.80;;;;;;;;;;5108046;28;20222;-83
2021/05/21 02:58:22;;;;;;;24.93;3.60;;;;;;;;;;5092375;28;20261;-84
2021/05/21 03:00:48;;;;;;;19.57;3.80;;;;;;;;;;5092126;28;20229;-84
2021/05/21 03:03:15;;;;;;;16.57;3.83;;;;;;;;;;5091746;28;20277;-83
2021/05/21 03:05:43;;;;;;;17.77;3.80;;;;;;;;;;5092232;28;20608;-84
2021/05/21 03:08:11;;;;;;;20.53;4.00;;;;;;;;;;5092016;28;20416;-84
2021/05/21 03:10:37;;;;;;;21.30;3.93;;;;;;;;;;5092116;28;20205;-84
2021/05/21 03:13:04;;;;;;;24.27;4.10;;;;;;;;;;5091641;28;20272;-83
2021/05/21 03:15:31;;;;;;;18.77;3.70;;;;;;;;;;5091069;28;20194;-84
2021/05/21 03:17:59;;;;;;;21.07;3.43;;;;;;;;;;5091253;28;20222;-84
2021/05/21 03:20:26;;;;;;;24.93;3.70;;;;;;;;;;5091331;28;20209;-83
2021/05/21 03:22:54;;;;;;;22.97;3.70;;;;;;;;;;5091727;28;20226;-84
2021/05/21 03:25:20;;;;;;;18.67;3.73;;;;;;;;;;5091886;28;20229;-84
2021/05/21 03:27:47;;;;;;;17.23;3.63;;;;;;;;;;5090957;28;20222;-83
2021/05/21 03:30:14;;;;;;;21.17;3.87;;;;;;;;;;5091558;28;20742;-83
2021/05/21 03:32:41;;;;;;;19.30;3.57;;;;;;;;;;5090821;28;20289;-83
2021/05/21 03:35:08;;;;;;;20.73;3.50;;;;;;;;;;5092002;28;20311;-83
2021/05/21 03:37:35;;;;;;;16.13;3.30;;;;;;;;;;5091438;28;20240;-83
2021/05/21 03:40:03;;;;;;;22.37;3.97;;;;;;;;;;5091523;28;20653;-83
2021/05/21 03:42:29;;;;;;;22.93;4.20;;;;;;;;;;5091722;28;20198;-83
2021/05/21 03:44:56;;;;;;;25.80;4.03;;;;;;;;;;5091084;28;20190;-84
2021/05/21 03:47:24;;;;;;;15.07;3.90;;;;;;;;;;5091411;28;20236;-83
2021/05/21 03:49:51;;;;;;;16.97;3.83;;;;;;;;;;5090894;28;20285;-83
2021/05/21 03:52:18;;;;;;;21.30;3.93;;;;;;;;;;5091450;28;20202;-84
2021/05/21 03:54:45;;;;;;;22.83;3.67;;;;;;;;;;5091518;28;20716;-83
2021/05/21 03:57:12;;;;;;;18.13;3.40;;;;;;;;;;5091525;28;20245;-84
2021/05/21 03:59:39;;;;;;;16.93;3.60;;;;;;;;;;5091319;28;20226;-83
2021/05/21 04:02:06;;;;;;;25.10;3.80;;;;;;;;;;5090969;28;20783;-83
2021/05/21 04:04:33;;;;;;;21.47;3.77;;;;;;;;;;5091872;28;20226;-84
2021/05/21 04:06:59;;;;;;;19.03;3.80;;;;;;;;;;5091266;28;20296;-83
2021/05/21 04:09:26;;;;;;;20.70;3.53;;;;;;;;;;5091822;28;20692;-83
2021/05/21 04:11:53;;;;;;;22.57;3.63;;;;;;;;;;5090855;28;20218;-84
2021/05/21 04:14:20;;;;;;;24.13;4.60;;;;;;;;;;5091191;28;20199;-84
2021/05/21 04:16:47;;;;;;;18.60;3.77;;;;;;;;;;5090517;28;20244;-84
2021/05/21 04:19:14;;;;;;;20.13;4.37;;;;;;;;;;5090483;28;20214;-84
2021/05/21 04:21:41;;;;;;;22.67;4.27;;;;;;;;;;5091305;28;20248;-82
2021/05/21 04:24:08;;;;;;;19.50;3.53;;;;;;;;;;5091353;28;20199;-83
2021/05/21 04:26:35;;;;;;;19.90;4.27;;;;;;;;;;5090981;28;20250;-82
2021/05/21 04:29:02;;;;;;;22.03;3.53;;;;;;;;;;5092949;28;20240;-82
2021/05/21 04:31:30;;;;;;;22.43;3.90;;;;;;;;;;5094696;28;20234;-85
2021/05/21 04:33:57;;;;;;;19.57;4.30;;;;;;;;;;5094666;28;20228;-82
2021/05/21 04:36:23;;;;;;;26.87;4.10;;;;;;;;;;5094869;28;20659;-82
2021/05/21 04:38:50;;;;;;;25.23;4.40;;;;;;;;;;5094437;28;20241;-82
2021/05/21 04:41:17;;;;;;;20.07;4.00;;;;;;;;;;5094659;28;20203;-83
2021/05/21 04:43:45;;;;;;;21.50;3.77;;;;;;;;;;5094691;28;20234;-82
2021/05/21 04:46:12;;;;;;;20.67;3.80;;;;;;;;;;5094728;28;20725;-81
2021/05/21 04:48:40;;;;;;;26.40;4.33;;;;;;;;;;5094686;28;20203;-83
2021/05/21 04:51:07;;;;;;;23.97;3.87;;;;;;;;;;5094863;28;20632;-82
2021/05/21 04:53:33;;;;;;;21.37;3.80;;;;;;;;;;5094092;28;20226;-82
2021/05/21 04:56:01;;;;;;;22.93;4.23;;;;;;;;;;5094491;28;20733;-82
2021/05/21 04:58:27;;;;;;;26.37;4.13;;;;;;;;;;5093542;28;20214;-82
2021/05/21 05:00:54;;;;;;;21.77;4.00;;;;;;;;;;5094509;28;20262;-82
2021/05/21 05:03:22;;;;;;;26.43;4.20;;;;;;;;;;5094610;28;20221;-83
2021/05/21 05:05:49;;;;;;;22.10;3.90;;;;;;;;;;5094181;28;20203;-84
2021/05/21 05:08:16;;;;;;;25.37;4.13;;;;;;;;;;5095510;28;20276;-84
2021/05/21 05:10:43;;;;;;;33.00;4.43;;;;;;;;;;5094494;28;20290;-83
2021/05/21 05:13:09;;;;;;;17.10;3.83;;;;;;;;;;5095159;28;20233;-83
2021/05/21 05:15:37;;;;;;;21.23;3.20;;;;;;;;;;5095050;28;20693;-82
2021/05/21 05:18:06;;;;;;;19.60;4.30;;;;;;;;;;5094317;28;20228;-80
2021/05/21 05:20:32;;;;;;;19.27;4.10;;;;;;;;;;5093595;28;20311;-84
2021/05/21 05:23:00;;;;;;;18.17;4.17;;;;;;;;;;5094410;28;20732;-84
2021/05/21 05:25:27;;;;;;;18.47;3.17;;;;;;;;;;5096141;28;20291;-83
2021/05/21 05:27:59;;;;;;;17.63;3.80;;;;;;;;;;5094133;28;20666;-85
2021/05/21 05:30:26;;;;;;;24.07;3.43;;;;;;;;;;5094379;28;20205;-86
2021/05/21 05:32:53;;;;;;;17.73;3.50;;;;;;;;;;5095006;28;20286;-82
2021/05/21 05:35:19;;;;;;;17.60;3.73;;;;;;;;;;5094438;28;20620;-81
2021/05/21 05:37:46;;;;;;;17.30;4.30;;;;;;;;;;5092817;28;20281;-82
2021/05/21 05:40:14;;;;;;;15.27;3.47;;;;;;;;;;5093156;28;20305;-83
2021/05/21 05:42:40;;;;;;;19.10;4.10;;;;;;;;;;5093150;28;20301;-83
2021/05/21 05:45:08;;;;;;;13.70;3.60;;;;;;;;;;5093079;28;20293;-85
2021/05/21 05:47:34;;;;;;;14.67;3.23;;;;;;;;;;5093196;28;20225;-80
2021/05/21 05:50:01;;;;;;;17.37;3.80;;;;;;;;;;5092801;28;20234;-81
2021/05/21 05:52:28;;;;;;;19.43;3.53;;;;;;;;;;5093433;28;20202;-80
2021/05/21 05:54:54;;;;;;;18.03;3.80;;;;;;;;;;5093187;28;20195;-80
2021/05/21 05:57:22;;;;;;;14.57;3.43;;;;;;;;;;5093299;28;20201;-80
2021/05/21 05:59:49;;;;;;;17.90;3.47;;;;;;;;;;5092978;28;20215;-80
2021/05/21 06:02:15;;;;;;;20.27;3.70;;;;;;;;;;5093131;28;20277;-80
2021/05/21 06:04:42;;;;;;;16.00;3.30;;;;;;;;;;5092163;28;20581;-80
2021/05/21 06:07:09;;;;;;;16.23;3.40;;;;;;;;;;5089827;28;20194;-80
2021/05/21 06:09:36;;;;;;;15.30;3.53;;;;;;;;;;5087504;28;20678;-80
2021/05/21 06:12:03;;;;;;;17.63;3.10;;;;;;;;;;5092299;28;20202;-80
2021/05/21 06:14:30;;;;;;;16.83;3.17;;;;;;;;;;5093193;28;20233;-80
2021/05/21 06:16:57;;;;;;;15.30;3.20;;;;;;;;;;5093068;28;20205;-81
2021/05/21 06:19:24;;;;;;;12.73;3.30;;;;;;;;;;5092416;28;20305;-80
2021/05/21 06:21:50;;;;;;;15.17;3.47;;;;;;;;;;5092492;28;20198;-81
2021/05/21 06:24:17;;;;;;;12.35;2.83;;;;;;;;;;5092032;28;20222;-80
2021/05/21 06:27:14;;;;;;;13.70;3.10;;;;;;;;;;5092077;28;20289;-81
2021/05/21 06:29:34;;;;;;;13.13;3.35;;;;;;;;;;5092189;28;20198;-81
2021/05/21 06:32:00;;;;;;;14.85;3.38;;;;;;;;;;5092829;28;20202;-81
2021/05/21 06:34:27;;;;;;;13.27;3.17;;;;;;;;;;5092208;28;20198;-81
2021/05/21 06:36:54;;;;;;;11.32;3.10;;;;;;;;;;5092280;28;20577;-81
2021/05/21 06:39:21;;;;;;;10.35;3.00;;;;;;;;;;5091555;28;20260;-81
2021/05/21 06:41:47;;;;;;;9.30;2.70;;;;;;;;;;5091729;28;20798;-82
2021/05/21 06:44:14;;;;;;;9.18;2.67;;;;;;;;;;5092082;28;20987;-81
2021/05/21 06:46:42;;;;;;;11.75;3.15;;;;;;;;;;5092274;28;20206;-82
2021/05/21 06:49:11;;;;;;;13.77;3.72;;;;;;;;;;5092017;28;20198;-82
2021/05/21 06:51:38;;;;;;;10.23;3.20;;;;;;;;;;5091323;28;20195;-82
2021/05/21 06:54:05;;;;;;;13.10;2.97;;;;;;;;;;5091767;28;20259;-82
2021/05/21 06:56:35;;;;;;;13.02;3.17;;;;;;;;;;5091315;28;20205;-82
2021/05/21 06:59:02;;;;;;;11.98;2.90;;;;;;;;;;5085043;28;20603;-82
2021/05/21 07:01:28;;;;;;;12.68;3.33;;;;;;;;;;5091134;28;20239;-82
2021/05/21 07:03:56;;;;;;;10.60;2.45;;;;;;;;;;5091876;28;20271;-81
2021/05/21 07:06:23;;;;;;;9.70;2.40;;;;;;;;;;5091627;28;20221;-82
2021/05/21 07:08:50;;;;;;;12.85;2.95;;;;;;;;;;5090993;28;20209;-82
2021/05/21 07:11:17;;;;;;;12.60;2.70;;;;;;;;;;5091183;28;20232;-82
2021/05/21 07:13:44;;;;;;;11.43;2.45;;;;;;;;;;5090540;28;20269;-83
2021/05/21 07:16:10;;;;;;;8.75;2.60;;;;;;;;;;5091825;28;20218;-82
2021/05/21 07:18:37;;;;;;;9.85;2.83;;;;;;;;;;5091404;28;20245;-82
2021/05/21 07:21:05;;;;;;;7.72;2.13;;;;;;;;;;5075242;28;20202;-82
2021/05/21 07:23:32;;;;;;;11.98;3.05;;;;;;;;;;5091855;28;20251;-82
2021/05/21 07:25:58;;;;;;;10.55;2.60;;;;;;;;;;5091444;28;20202;-82
2021/05/21 07:28:25;;;;;;;10.07;3.13;;;;;;;;;;5091778;28;20651;-82
2021/05/21 07:30:52;;;;;;;9.18;2.78;;;;;;;;;;5091170;28;20277;-82
2021/05/21 07:33:19;;;;;;;9.05;2.15;;;;;;;;;;5091512;28;21646;-82
2021/05/21 07:35:45;;;;;;;8.52;2.50;;;;;;;;;;5091628;28;20226;-82
2021/05/21 07:38:13;;;;;;;11.10;2.80;;;;;;;;;;5091172;28;20295;-82
2021/05/21 07:40:42;;;;;;;12.68;2.85;;;;;;;;;;5091242;28;20320;-81
2021/05/21 07:43:08;;;;;;;10.60;2.53;;;;;;;;;;5091648;28;20940;-81
2021/05/21 07:45:35;;;;;;;10.00;2.45;;;;;;;;;;5091325;28;20577;-82
2021/05/21 07:48:02;;;;;;;11.90;2.70;;;;;;;;;;5091634;28;20210;-82
2021/05/21 07:50:29;;;;;;;12.98;2.38;;;;;;;;;;5090890;28;20681;-82
2021/05/21 07:52:57;;;;;;;9.95;2.00;;;;;;;;;;5090630;28;20226;-81
2021/05/21 07:55:25;;;;;;;9.45;2.53;;;;;;;;;;5091189;28;20244;-82
2021/05/21 07:57:51;;;;;;;11.35;2.40;;;;;;;;;;5091105;28;20230;-82
2021/05/21 08:00:23;;;;;;;10.38;2.35;;;;;;;;;;5090792;28;20199;-82
2021/05/21 08:02:50;;;;;;;11.68;2.85;;;;;;;;;;5091662;28;20195;-81
2021/05/21 08:05:17;;;;;;;11.70;2.58;;;;;;;;;;5093907;28;20253;-81
2021/05/21 08:07:43;;;;;;;10.13;2.40;;;;;;;;;;5094712;28;20198;-83
2021/05/21 08:10:10;;;;;;;14.48;2.60;;;;;;;;;;5094399;28;20250;-81
2021/05/21 08:12:47;;;;;;;10.50;2.83;;;;;;;;;;5094858;28;20229;-82
2021/05/21 08:15:14;;;;;;;12.88;2.33;;;;;;;;;;5088840;28;20205;-81
2021/05/21 08:17:41;;;;;;;12.25;2.95;;;;;;;;;;5094878;28;20626;-82
2021/05/21 08:20:10;;;;;;;14.15;2.40;;;;;;;;;;5094542;28;20305;-82
2021/05/21 08:22:36;;;;;;;9.95;2.33;;;;;;;;;;5094334;28;20249;-82
2021/05/21 08:25:05;;;;;;;8.75;2.08;;;;;;;;;;5094559;28;20273;-82
2021/05/21 08:27:31;;;;;;;10.32;2.58;;;;;;;;;;5093518;28;20226;-81
2021/05/21 08:29:59;;;;;;;9.82;2.08;;;;;;;;;;5094169;28;20661;-81
2021/05/21 08:32:26;;;;;;;10.50;1.85;;;;;;;;;;5094357;28;20557;-81
2021/05/21 08:34:52;;;;;;;9.60;2.22;;;;;;;;;;5094081;28;20194;-81
2021/05/21 08:37:19;;;;;;;8.02;2.22;;;;;;;;;;5094747;28;20707;-82
2021/05/21 08:39:46;;;;;;;10.00;2.40;;;;;;;;;;5093592;28;20308;-82
2021/05/21 08:42:13;;;;;;;6.63;1.70;;;;;;;;;;5093874;28;20554;-82
2021/05/21 08:44:46;;;;;;;6.15;1.40;;;;;;;;;;5092720;28;20255;-82
2021/05/21 08:47:14;;;;;;;10.75;1.95;;;;;;;;;;5094282;28;20198;-83
2021/05/21 08:49:41;;;;;;;7.95;2.10;;;;;;;;;;5093373;28;20234;-82
2021/05/21 08:52:08;;;;;;;8.23;2.00;;;;;;;;;;5094274;28;20272;-81
2021/05/21 08:54:36;;;;;;;12.23;2.38;;;;;;;;;;5094443;28;20199;-81
2021/05/21 08:57:05;;;;;;;9.60;2.25;;;;;;;;;;5089314;28;20226;-82
2021/05/21 08:59:32;;;;;;;6.85;2.20;;;;;;;;;;5094091;28;20247;-84
2021/05/21 09:01:59;;;;;;;9.15;2.30;;;;;;;;;;5093726;28;20233;-83
2021/05/21 09:04:45;;;;;;;9.88;2.13;;;;;;;;;;5093741;28;20202;-83
2021/05/21 09:07:19;;;;;;;11.82;2.50;;;;;;;;;;5094231;28;20927;-82
2021/05/21 09:09:46;;;;;;;8.43;2.40;;;;;;;;;;5093084;28;20191;-83
2021/05/21 09:12:12;;;;;;;9.60;2.15;;;;;;;;;;5093658;28;20226;-82
2021/05/21 09:14:39;;;;;;;7.72;2.60;;;;;;;;;;5093114;28;20217;-83
2021/05/21 09:17:06;;;;;;;8.82;2.75;;;;;;;;;;5093272;28;20225;-83
2021/05/21 09:19:33;;;;;;;9.40;2.35;;;;;;;;;;5093423;28;20249;-82
2021/05/21 09:22:02;;;;;;;6.72;2.25;;;;;;;;;;5093344;28;20630;-82
2021/05/21 09:24:30;;;;;;;6.95;2.13;;;;;;;;;;5078280;28;20226;-83
2021/05/21 09:26:57;;;;;;;7.65;2.38;;;;;;;;;;5093968;28;20291;-83
2021/05/21 09:29:39;;;;;;;7.32;2.17;;;;;;;;;;5093874;28;20195;-84
2021/05/21 09:32:16;;;;;;;6.43;1.98;;;;;;;;;;5093746;28;20206;-82
2021/05/21 09:34:48;;;;;;;8.57;1.90;;;;;;;;;;5093659;28;20198;-83
2021/05/21 09:37:21;;;;;;;7.80;1.80;;;;;;;;;;5094351;28;20658;-82
2021/05/21 09:40:01;;;;;;;5.57;1.80;;;;;;;;;;5094701;28;20222;-82
2021/05/21 09:42:28;;;;;;;6.72;1.92;;;;;;;;;;5095415;28;20267;-82
2021/05/21 09:44:55;;;;;;;9.00;2.10;;;;;;;;;;5095245;28;20202;-83
2021/05/21 09:47:21;;;;;;;7.10;1.70;;;;;;;;;;5093782;28;20226;-83
2021/05/21 09:49:53;;;;;;;7.07;2.13;;;;;;;;;;5093319;28;20794;-83
2021/05/21 09:52:19;;;;;;;6.85;1.95;;;;;;;;;;5092792;28;20687;-83
2021/05/21 09:54:49;;;;;;;6.78;2.13;;;;;;;;;;5093574;28;20195;-82
2021/05/21 09:57:16;;;;;;;7.10;1.80;;;;;;;;;;5092048;28;20640;-82
2021/05/21 09:59:44;;;;;;;9.52;2.55;;;;;;;;;;5085736;28;20263;-84
2021/05/21 10:02:20;;;;;;;8.07;2.40;;;;;;;;;;5092591;28;20244;-82
2021/05/21 10:04:47;;;;;;;8.10;2.00;;;;;;;;;;5085175;28;20195;-80
2021/05/21 10:07:15;;;;;;;6.28;1.75;;;;;;;;;;5092638;28;20218;-80
2021/05/21 10:09:42;;;;;;;7.13;1.98;;;;;;;;;;5092042;28;20214;-81
2021/05/21 10:12:09;;;;;;;8.27;2.00;;;;;;;;;;5092475;28;20265;-80
2021/05/21 10:14:36;;;;;;;6.63;1.90;;;;;;;;;;5091346;28;20277;-80
2021/05/21 10:17:03;;;;;;;10.45;2.00;;;;;;;;;;5092102;28;20272;-80
2021/05/21 10:19:33;;;;;;;7.78;2.20;;;;;;;;;;5092524;28;20276;-80
2021/05/21 10:22:01;;;;;;;7.03;2.35;;;;;;;;;;5092775;28;20199;-81
2021/05/21 10:24:32;;;;;;;8.63;1.73;;;;;;;;;;5093046;28;20206;-80
2021/05/21 10:26:59;;;;;;;4.88;1.65;;;;;;;;;;5092317;28;20246;-80
2021/05/21 10:29:27;;;;;;;5.57;1.95;;;;;;;;;;5092807;28;20233;-80
2021/05/21 10:31:54;;;;;;;7.28;2.03;;;;;;;;;;5092144;28;20277;-80
2021/05/21 10:34:22;;;;;;;6.13;1.80;;;;;;;;;;5091600;28;20218;-80
2021/05/21 10:36:49;;;;;;;5.03;1.48;;;;;;;;;;5090887;28;20230;-80
2021/05/21 10:39:18;;;;;;;5.95;1.33;;;;;;;;;;5091481;28;20242;-81
2021/05/21 10:41:52;;;;;;;5.70;1.70;;;;;;;;;;5090645;28;20665;-80
2021/05/21 10:44:20;;;;;;;6.50;1.50;;;;;;;;;;5090524;28;20198;-80
2021/05/21 10:46:48;;;;;;;5.70;1.60;;;;;;;;;;5091597;28;20198;-80
2021/05/21 10:49:22;;;;;;;6.07;1.40;;;;;;;;;;5092252;28;20229;-80
2021/05/21 10:51:50;;;;;;;6.90;1.77;;;;;;;;;;5090528;28;20194;-80
2021/05/21 10:54:27;;;;;;;7.22;1.70;;;;;;;;;;5092213;28;20286;-80
2021/05/21 10:56:57;;;;;;;10.27;1.83;;;;;;;;;;5091002;28;20238;-80
2021/05/21 10:59:38;;;;;;;4.75;1.30;;;;;;;;;;5091800;28;20218;-81
2021/05/21 11:02:05;;;;;;;4.97;1.77;;;;;;;;;;5084546;28;20258;-81
2021/05/21 11:04:32;;;;;;;7.03;1.73;;;;;;;;;;5088008;28;20218;-80
2021/05/21 11:07:00;;;;;;;5.80;1.65;;;;;;;;;;5090710;28;20194;-81
2021/05/21 11:09:31;;;;;;;5.22;1.55;;;;;;;;;;5091683;28;20190;-81
2021/05/21 11:12:03;;;;;;;4.93;1.55;;;;;;;;;;5091212;28;20225;-81
2021/05/21 11:14:31;;;;;;;7.38;1.85;;;;;;;;;;5079547;28;20251;-81
2021/05/21 11:16:59;;;;;;;5.55;1.52;;;;;;;;;;5091312;28;20201;-80
2021/05/21 11:19:27;;;;;;;6.05;1.70;;;;;;;;;;5084650;28;20225;-83
2021/05/21 11:22:05;;;;;;;6.38;1.60;;;;;;;;;;5090708;28;20194;-82
2021/05/21 11:24:37;;;;;;;4.80;1.40;;;;;;;;;;5082842;28;20620;-82
2021/05/21 11:27:20;;;;;;;6.10;1.70;;;;;;;;;;5091373;28;20214;-83
2021/05/21 11:30:09;;;;;;;6.53;1.75;;;;;;;;;;5092102;28;20194;-85
2021/05/21 11:32:45;;;;;;;3.75;1.45;;;;;;;;;;5084651;28;20199;-85
2021/05/21 11:35:12;;;;;;;6.93;1.55;;;;;;;;;;5091729;28;20244;-85
2021/05/21 11:37:40;;;;;;;8.65;1.52;;;;;;;;;;5090766;28;20213;-86
2021/05/21 11:40:08;;;;;;;4.72;1.38;;;;;;;;;;5090975;28;20701;-85
2021/05/21 11:42:35;;;;;;;5.30;1.27;;;;;;;;;;5091517;28;20194;-85
2021/05/21 11:45:02;;;;;;;6.10;1.60;;;;;;;;;;5091681;28;20317;-85
2021/05/21 11:47:31;;;;;;;4.78;1.58;;;;;;;;;;5092876;28;20216;-83
2021/05/21 11:50:00;;;;;;;8.32;1.73;;;;;;;;;;5093530;28;20209;-85
2021/05/21 11:52:28;;;;;;;8.18;1.58;;;;;;;;;;5090418;28;20582;-86
2021/05/21 11:54:56;;;;;;;5.63;1.90;;;;;;;;;;5091547;28;20210;-85
2021/05/21 11:57:24;;;;;;;6.07;1.70;;;;;;;;;;5091103;28;20213;-86
2021/05/21 11:59:51;;;;;;;7.43;1.80;;;;;;;;;;5091052;28;20298;-85
2021/05/21 12:02:18;;;;;;;9.25;1.88;;;;;;;;;;5090910;28;20279;-85
2021/05/21 12:04:47;;;;;;;6.78;1.92;;;;;;;;;;5088061;28;21125;-83
2021/05/21 12:07:20;;;;;;;7.53;1.70;;;;;;;;;;5090565;28;20240;-84
2021/05/21 12:09:53;;;;;;;4.53;1.30;;;;;;;;;;5090982;28;20574;-85
2021/05/21 12:12:23;;;;;;;5.20;1.10;;;;;;;;;;5089533;28;20299;-84
2021/05/21 12:14:50;;;;;;;5.63;1.30;;;;;;;;;;5089441;28;20200;-85
2021/05/21 12:17:17;;;;;;;7.20;1.30;;;;;;;;;;5090174;28;20221;-85
2021/05/21 12:20:02;;;;;;;7.27;2.00;;;;;;;;;;5086517;28;20283;-85
2021/05/21 12:22:32;;;;;;;6.75;1.52;;;;;;;;;;5090824;28;20210;-86
2021/05/21 12:24:59;;;;;;;5.88;1.60;;;;;;;;;;5091299;28;20202;-86
2021/05/21 12:27:26;;;;;;;11.15;2.10;;;;;;;;;;5084971;28;20268;-85
2021/05/21 12:29:53;;;;;;;7.00;1.90;;;;;;;;;;5090701;28;20230;-85
2021/05/21 12:32:20;;;;;;;8.25;2.28;;;;;;;;;;5090808;28;20294;-88
2021/05/21 12:34:53;;;;;;;8.32;2.00;;;;;;;;;;5089283;28;20214;-85
2021/05/21 12:37:23;;;;;;;8.57;2.88;;;;;;;;;;5089760;28;20220;-86
2021/05/21 12:39:52;;;;;;;9.33;1.80;;;;;;;;;;5086961;28;20233;-86
2021/05/21 12:42:21;;;;;;;8.40;1.87;;;;;;;;;;5090512;28;20215;-84
2021/05/21 12:44:51;;;;;;;9.67;2.00;;;;;;;;;;5090400;28;20677;-85
2021/05/21 12:47:19;;;;;;;7.00;1.50;;;;;;;;;;5091244;28;20289;-85
2021/05/21 12:49:47;;;;;;;4.83;1.63;;;;;;;;;;5090665;28;20195;-85
2021/05/21 12:52:13;;;;;;;6.60;1.50;;;;;;;;;;5094876;28;20294;-84
2021/05/21 12:54:42;;;;;;;5.17;1.37;;;;;;;;;;5094341;28;20285;-85
2021/05/21 12:57:10;;;;;;;4.17;1.30;;;;;;;;;;5094445;28;20194;-84
2021/05/21 12:59:41;;;;;;;2.80;1.10;;;;;;;;;;5094532;28;20210;-86
2021/05/21 13:02:11;;;;;;;3.97;1.13;;;;;;;;;;5093545;28;20672;-85
2021/05/21 13:04:38;;;;;;;5.83;1.33;;;;;;;;;;5091367;28;20226;-84
2021/05/21 13:07:06;;;;;;;5.67;1.20;;;;;;;;;;5093774;28;20276;-84
2021/05/21 13:09:33;;;;;;;4.50;1.00;;;;;;;;;;5094198;28;20293;-85
2021/05/21 13:12:00;;;;;;;4.67;1.03;;;;;;;;;;5093584;28;20263;-85
2021/05/21 13:14:29;;;;;;;5.87;1.30;;;;;;;;;;5094439;28;20650;-86
2021/05/21 13:16:57;;;;;;;3.53;1.10;;;;;;;;;;5091696;28;20191;-84
2021/05/21 13:19:27;;;;;;;5.23;1.57;;;;;;;;;;5093286;28;20222;-85
2021/05/21 13:21:54;;;;;;;4.97;1.37;;;;;;;;;;5080562;28;20212;-85
2021/05/21 13:24:22;;;;;;;5.57;1.20;;;;;;;;;;5091432;28;20190;-85
2021/05/21 13:26:58;;;;;;;4.47;1.03;;;;;;;;;;5093284;28;20210;-85
2021/05/21 13:29:24;;;;;;;6.85;1.50;;;;;;;;;;5085627;28;20271;-85
2021/05/21 13:31:54;;;;;;;5.78;1.20;;;;;;;;;;5093187;28;20217;-85
2021/05/21 13:34:26;;;;;;;5.75;1.58;;;;;;;;;;5093110;28;20705;-84
2021/05/21 13:36:53;;;;;;;6.65;1.60;;;;;;;;;;5093301;28;20202;-85
2021/05/21 13:39:19;;;;;;;7.13;1.50;;;;;;;;;;5092701;28;20256;-85
2021/05/21 13:41:46;;;;;;;7.30;1.60;;;;;;;;;;5094633;28;20210;-87
2021/05/21 13:44:13;;;;;;;6.80;1.40;;;;;;;;;;5093657;28;20677;-85
2021/05/21 13:46:42;;;;;;;6.90;1.60;;;;;;;;;;5094113;28;20552;-86
2021/05/21 13:49:09;;;;;;;8.57;1.43;;;;;;;;;;5093376;28;20577;-85
2021/05/21 13:51:36;;;;;;;6.40;1.80;;;;;;;;;;5093580;28;20194;-82
2021/05/21 13:54:04;;;;;;;8.90;1.60;;;;;;;;;;5092345;28;20285;-82
2021/05/21 13:56:31;;;;;;;10.00;2.40;;;;;;;;;;5092465;28;20198;-82
2021/05/21 13:58:57;;;;;;;8.13;1.60;;;;;;;;;;5092832;28;20301;-81
2021/05/21 14:01:24;;;;;;;10.43;1.80;;;;;;;;;;5093132;28;20206;-81
2021/05/21 14:03:51;;;;;;;6.00;1.60;;;;;;;;;;5093442;28;20241;-82
2021/05/21 14:06:18;;;;;;;7.67;1.60;;;;;;;;;;5092974;28;20202;-82
2021/05/21 14:08:45;;;;;;;8.03;1.77;;;;;;;;;;5093227;28;20202;-83
2021/05/21 14:11:12;;;;;;;9.20;2.07;;;;;;;;;;5093626;28;20230;-81
2021/05/21 14:13:39;;;;;;;9.73;1.80;;;;;;;;;;5092290;28;20235;-81
2021/05/21 14:16:06;;;;;;;6.10;1.70;;;;;;;;;;5092888;28;20212;-82
2021/05/21 14:18:33;;;;;;;7.38;1.70;;;;;;;;;;5089396;28;20187;-82
2021/05/21 14:21:00;;;;;;;7.63;2.10;;;;;;;;;;5090886;28;20289;-83
2021/05/21 14:23:32;;;;;;;8.05;1.75;;;;;;;;;;5092271;28;20256;-86
2021/05/21 14:25:59;;;;;;;7.15;1.80;;;;;;;;;;5092953;28;20281;-86
2021/05/21 14:28:26;;;;;;;7.43;1.60;;;;;;;;;;5092957;28;20252;-84
2021/05/21 14:30:53;;;;;;;7.97;1.77;;;;;;;;;;5093109;28;20606;-84
2021/05/21 14:33:21;;;;;;;4.93;1.48;;;;;;;;;;5092864;28;20222;-85
2021/05/21 14:35:48;;;;;;;6.93;1.45;;;;;;;;;;5088381;28;20665;-80
2021/05/21 14:38:15;;;;;;;3.72;1.00;;;;;;;;;;5087829;28;20191;-81
2021/05/21 14:40:42;;;;;;;3.15;0.90;;;;;;;;;;5079706;28;20308;-81